sensor_id;sensor_type;location;lat;lon;timestamp;P1;durP1;ratioP1;P2;durP2;ratioP2
27566;SDS011;15006;48.584;9.186;2022-07-05T00:01:48;12.98;;;2.22;;
27566;SDS011;15006;48.584;9.186;2022-07-05T00:04:14;4.25;;;2.15;;
27566;SDS011;15006;48.584;9.186;2022-07-05T00:06:40;8.27;;;2.40;;
27566;SDS011;15006;48.584;9.186;2022-07-05T00:09:26;3.75;;;2.38;;
27566;SDS011;15006;48.584;9.186;2022-07-05T00:11:58;2.58;;;2.42;;
27566;SDS011;15006;48.584;9.186;2022-07-05T00:14:24;3.13;;;2.33;;
27566;SDS011;15006;48.584;9.186;2022-07-05T00:16:50;6.00;;;2.30;;
27566;SDS011;15006;48.584;9.186;2022-07-05T00:19:16;5.20;;;1.98;;
27566;SDS011;15006;48.584;9.186;2022-07-05T00:21:42;7.43;;;2.00;;
27566;SDS011;15006;48.584;9.186;2022-07-05T00:24:08;7.25;;;2.40;;
27566;SDS011;15006;48.584;9.186;2022-07-05T00:26:34;4.65;;;2.20;;
27566;SDS011;15006;48.584;9.186;2022-07-05T00:29:00;5.00;;;2.80;;
27566;SDS011;15006;48.584;9.186;2022-07-05T00:31:26;6.13;;;2.05;;
27566;SDS011;15006;48.584;9.186;2022-07-05T00:33:52;9.82;;;2.50;;
27566;SDS011;15006;48.584;9.186;2022-07-05T00:36:18;3.85;;;2.35;;
27566;SDS011;15006;48.584;9.186;2022-07-05T00:38:44;6.80;;;2.60;;
27566;SDS011;15006;48.584;9.186;2022-07-05T00:41:10;8.45;;;2.33;;
27566;SDS011;15006;48.584;9.186;2022-07-05T00:43:36;5.70;;;2.97;;
27566;SDS011;15006;48.584;9.186;2022-07-05T00:46:02;9.20;;;2.28;;
27566;SDS011;15006;48.584;9.186;2022-07-05T00:48:28;8.77;;;2.38;;
27566;SDS011;15006;48.584;9.186;2022-07-05T00:50:54;12.50;;;2.22;;
27566;SDS011;15006;48.584;9.186;2022-07-05T00:53:20;17.92;;;2.83;;
27566;SDS011;15006;48.584;9.186;2022-07-05T00:55:45;9.65;;;2.42;;
27566;SDS011;15006;48.584;9.186;2022-07-05T00:58:12;3.20;;;2.30;;
27566;SDS011;15006;48.584;9.186;2022-07-05T01:00:38;2.60;;;2.42;;
27566;SDS011;15006;48.584;9.186;2022-07-05T01:03:04;3.88;;;2.33;;
27566;SDS011;15006;48.584;9.186;2022-07-05T01:05:32;6.95;;;2.28;;
27566;SDS011;15006;48.584;9.186;2022-07-05T01:08:01;5.10;;;2.20;;
27566;SDS011;15006;48.584;9.186;2022-07-05T01:10:30;9.52;;;2.40;;
27566;SDS011;15006;48.584;9.186;2022-07-05T01:12:56;3.53;;;2.75;;
27566;SDS011;15006;48.584;9.186;2022-07-05T01:15:22;4.43;;;2.67;;
27566;SDS011;15006;48.584;9.186;2022-07-05T01:17:49;3.22;;;2.53;;
27566;SDS011;15006;48.584;9.186;2022-07-05T01:20:15;7.97;;;2.40;;
27566;SDS011;15006;48.584;9.186;2022-07-05T01:22:51;2.80;;;2.10;;
27566;SDS011;15006;48.584;9.186;2022-07-05T01:25:26;3.28;;;2.22;;
27566;SDS011;15006;48.584;9.186;2022-07-05T01:27:53;3.05;;;2.60;;
27566;SDS011;15006;48.584;9.186;2022-07-05T01:30:21;3.08;;;2.60;;
27566;SDS011;15006;48.584;9.186;2022-07-05T01:32:47;2.50;;;2.33;;
27566;SDS011;15006;48.584;9.186;2022-07-05T01:35:14;13.40;;;2.45;;
27566;SDS011;15006;48.584;9.186;2022-07-05T01:37:49;2.45;;;2.20;;
27566;SDS011;15006;48.584;9.186;2022-07-05T01:40:16;11.18;;;2.28;;
27566;SDS011;15006;48.584;9.186;2022-07-05T01:42:43;13.30;;;3.10;;
27566;SDS011;15006;48.584;9.186;2022-07-05T01:45:10;7.82;;;2.47;;
27566;SDS011;15006;48.584;9.186;2022-07-05T01:47:38;5.45;;;2.60;;
27566;SDS011;15006;48.584;9.186;2022-07-05T01:50:11;5.63;;;2.30;;
27566;SDS011;15006;48.584;9.186;2022-07-05T01:52:39;8.40;;;2.80;;
27566;SDS011;15006;48.584;9.186;2022-07-05T01:55:09;3.28;;;2.20;;
27566;SDS011;15006;48.584;9.186;2022-07-05T01:57:35;7.72;;;2.03;;
27566;SDS011;15006;48.584;9.186;2022-07-05T02:00:01;18.92;;;2.95;;
27566;SDS011;15006;48.584;9.186;2022-07-05T02:02:28;16.55;;;2.53;;
27566;SDS011;15006;48.584;9.186;2022-07-05T02:04:54;11.55;;;2.60;;
27566;SDS011;15006;48.584;9.186;2022-07-05T02:07:20;9.43;;;2.50;;
27566;SDS011;15006;48.584;9.186;2022-07-05T02:09:46;9.18;;;2.30;;
27566;SDS011;15006;48.584;9.186;2022-07-05T02:12:12;9.02;;;2.95;;
27566;SDS011;15006;48.584;9.186;2022-07-05T02:14:41;8.60;;;2.42;;
27566;SDS011;15006;48.584;9.186;2022-07-05T02:17:07;12.15;;;2.60;;
27566;SDS011;15006;48.584;9.186;2022-07-05T02:19:34;17.17;;;3.10;;
27566;SDS011;15006;48.584;9.186;2022-07-05T02:22:03;13.85;;;2.95;;
27566;SDS011;15006;48.584;9.186;2022-07-05T02:24:29;11.40;;;2.60;;
27566;SDS011;15006;48.584;9.186;2022-07-05T02:26:54;7.18;;;2.30;;
27566;SDS011;15006;48.584;9.186;2022-07-05T02:29:32;6.22;;;2.20;;
27566;SDS011;15006;48.584;9.186;2022-07-05T02:31:58;4.97;;;2.35;;
27566;SDS011;15006;48.584;9.186;2022-07-05T02:34:24;5.50;;;2.53;;
27566;SDS011;15006;48.584;9.186;2022-07-05T02:36:51;4.63;;;2.50;;
27566;SDS011;15006;48.584;9.186;2022-07-05T02:39:17;4.93;;;2.47;;
27566;SDS011;15006;48.584;9.186;2022-07-05T02:41:43;4.72;;;2.35;;
27566;SDS011;15006;48.584;9.186;2022-07-05T02:44:09;3.08;;;2.60;;
27566;SDS011;15006;48.584;9.186;2022-07-05T02:46:35;2.95;;;2.70;;
27566;SDS011;15006;48.584;9.186;2022-07-05T02:49:01;11.45;;;2.22;;
27566;SDS011;15006;48.584;9.186;2022-07-05T02:51:27;3.40;;;2.20;;
27566;SDS011;15006;48.584;9.186;2022-07-05T02:53:53;10.15;;;2.50;;
27566;SDS011;15006;48.584;9.186;2022-07-05T02:56:19;2.92;;;2.65;;
27566;SDS011;15006;48.584;9.186;2022-07-05T02:58:44;7.63;;;2.70;;
27566;SDS011;15006;48.584;9.186;2022-07-05T03:01:10;6.60;;;2.72;;
27566;SDS011;15006;48.584;9.186;2022-07-05T03:03:36;5.35;;;2.70;;
27566;SDS011;15006;48.584;9.186;2022-07-05T03:06:02;2.88;;;2.30;;
27566;SDS011;15006;48.584;9.186;2022-07-05T03:08:28;11.60;;;2.60;;
27566;SDS011;15006;48.584;9.186;2022-07-05T03:10:54;5.70;;;2.30;;
27566;SDS011;15006;48.584;9.186;2022-07-05T03:13:20;5.38;;;2.50;;
27566;SDS011;15006;48.584;9.186;2022-07-05T03:15:46;3.92;;;2.22;;
27566;SDS011;15006;48.584;9.186;2022-07-05T03:18:12;9.57;;;2.53;;
27566;SDS011;15006;48.584;9.186;2022-07-05T03:20:38;9.88;;;2.65;;
27566;SDS011;15006;48.584;9.186;2022-07-05T03:23:04;4.90;;;2.33;;
27566;SDS011;15006;48.584;9.186;2022-07-05T03:25:30;6.30;;;2.65;;
27566;SDS011;15006;48.584;9.186;2022-07-05T03:27:56;10.88;;;2.85;;
27566;SDS011;15006;48.584;9.186;2022-07-05T03:30:22;5.47;;;2.40;;
27566;SDS011;15006;48.584;9.186;2022-07-05T03:32:48;3.22;;;2.33;;
27566;SDS011;15006;48.584;9.186;2022-07-05T03:35:14;3.75;;;2.47;;
27566;SDS011;15006;48.584;9.186;2022-07-05T03:37:40;2.33;;;2.13;;
27566;SDS011;15006;48.584;9.186;2022-07-05T03:40:06;5.63;;;2.58;;
27566;SDS011;15006;48.584;9.186;2022-07-05T03:42:33;3.03;;;2.72;;
27566;SDS011;15006;48.584;9.186;2022-07-05T03:45:00;3.45;;;2.42;;
27566;SDS011;15006;48.584;9.186;2022-07-05T03:47:28;7.93;;;2.60;;
27566;SDS011;15006;48.584;9.186;2022-07-05T03:49:54;7.90;;;2.72;;
27566;SDS011;15006;48.584;9.186;2022-07-05T03:52:20;8.48;;;2.75;;
27566;SDS011;15006;48.584;9.186;2022-07-05T03:54:46;4.05;;;2.70;;
27566;SDS011;15006;48.584;9.186;2022-07-05T03:57:12;9.70;;;2.75;;
27566;SDS011;15006;48.584;9.186;2022-07-05T03:59:38;8.02;;;2.83;;
27566;SDS011;15006;48.584;9.186;2022-07-05T04:02:05;6.03;;;2.60;;
27566;SDS011;15006;48.584;9.186;2022-07-05T04:04:31;4.88;;;2.33;;
27566;SDS011;15006;48.584;9.186;2022-07-05T04:06:57;6.05;;;2.30;;
27566;SDS011;15006;48.584;9.186;2022-07-05T04:09:23;4.03;;;2.70;;
27566;SDS011;15006;48.584;9.186;2022-07-05T04:11:48;8.95;;;2.60;;
27566;SDS011;15006;48.584;9.186;2022-07-05T04:14:14;8.10;;;2.53;;
27566;SDS011;15006;48.584;9.186;2022-07-05T04:16:40;4.10;;;2.30;;
27566;SDS011;15006;48.584;9.186;2022-07-05T04:19:06;6.70;;;2.63;;
27566;SDS011;15006;48.584;9.186;2022-07-05T04:21:32;2.50;;;2.33;;
27566;SDS011;15006;48.584;9.186;2022-07-05T04:23:58;4.03;;;2.22;;
27566;SDS011;15006;48.584;9.186;2022-07-05T04:26:24;3.58;;;2.17;;
27566;SDS011;15006;48.584;9.186;2022-07-05T04:28:52;3.60;;;2.33;;
27566;SDS011;15006;48.584;9.186;2022-07-05T04:31:17;3.85;;;2.15;;
27566;SDS011;15006;48.584;9.186;2022-07-05T04:33:43;5.70;;;2.42;;
27566;SDS011;15006;48.584;9.186;2022-07-05T04:36:09;2.75;;;2.50;;
27566;SDS011;15006;48.584;9.186;2022-07-05T04:38:35;3.30;;;2.40;;
27566;SDS011;15006;48.584;9.186;2022-07-05T04:41:01;4.80;;;4.32;;
27566;SDS011;15006;48.584;9.186;2022-07-05T04:43:27;3.28;;;3.08;;
27566;SDS011;15006;48.584;9.186;2022-07-05T04:45:53;4.80;;;3.20;;
27566;SDS011;15006;48.584;9.186;2022-07-05T04:48:19;4.00;;;2.97;;
27566;SDS011;15006;48.584;9.186;2022-07-05T04:50:45;3.92;;;2.80;;
27566;SDS011;15006;48.584;9.186;2022-07-05T04:53:11;3.25;;;2.70;;
27566;SDS011;15006;48.584;9.186;2022-07-05T04:55:37;3.63;;;2.22;;
27566;SDS011;15006;48.584;9.186;2022-07-05T04:58:03;6.35;;;2.70;;
27566;SDS011;15006;48.584;9.186;2022-07-05T05:00:29;3.75;;;3.10;;
27566;SDS011;15006;48.584;9.186;2022-07-05T05:02:55;4.65;;;2.50;;
27566;SDS011;15006;48.584;9.186;2022-07-05T05:05:23;5.35;;;2.83;;
27566;SDS011;15006;48.584;9.186;2022-07-05T05:07:50;2.42;;;2.22;;
27566;SDS011;15006;48.584;9.186;2022-07-05T05:10:16;2.53;;;2.38;;
27566;SDS011;15006;48.584;9.186;2022-07-05T05:12:42;6.50;;;2.10;;
27566;SDS011;15006;48.584;9.186;2022-07-05T05:15:08;2.55;;;2.40;;
27566;SDS011;15006;48.584;9.186;2022-07-05T05:17:35;3.58;;;2.22;;
27566;SDS011;15006;48.584;9.186;2022-07-05T05:20:07;2.30;;;2.10;;
27566;SDS011;15006;48.584;9.186;2022-07-05T05:22:41;2.50;;;2.30;;
27566;SDS011;15006;48.584;9.186;2022-07-05T05:25:08;2.15;;;2.03;;
27566;SDS011;15006;48.584;9.186;2022-07-05T05:27:35;2.65;;;2.10;;
27566;SDS011;15006;48.584;9.186;2022-07-05T05:30:06;2.10;;;1.98;;
27566;SDS011;15006;48.584;9.186;2022-07-05T05:32:33;4.60;;;2.30;;
27566;SDS011;15006;48.584;9.186;2022-07-05T05:34:59;4.32;;;2.35;;
27566;SDS011;15006;48.584;9.186;2022-07-05T05:37:25;2.20;;;2.03;;
27566;SDS011;15006;48.584;9.186;2022-07-05T05:39:51;2.47;;;2.30;;
27566;SDS011;15006;48.584;9.186;2022-07-05T05:42:17;2.65;;;2.50;;
27566;SDS011;15006;48.584;9.186;2022-07-05T05:44:42;2.22;;;2.08;;
27566;SDS011;15006;48.584;9.186;2022-07-05T05:47:08;3.22;;;2.10;;
27566;SDS011;15006;48.584;9.186;2022-07-05T05:49:37;3.58;;;2.55;;
27566;SDS011;15006;48.584;9.186;2022-07-05T05:52:03;4.55;;;2.10;;
27566;SDS011;15006;48.584;9.186;2022-07-05T05:54:29;2.42;;;2.22;;
27566;SDS011;15006;48.584;9.186;2022-07-05T05:56:55;2.38;;;2.00;;
27566;SDS011;15006;48.584;9.186;2022-07-05T05:59:21;1.95;;;1.75;;
27566;SDS011;15006;48.584;9.186;2022-07-05T06:01:47;2.90;;;2.65;;
27566;SDS011;15006;48.584;9.186;2022-07-05T06:04:13;2.10;;;2.00;;
27566;SDS011;15006;48.584;9.186;2022-07-05T06:06:39;3.08;;;2.15;;
27566;SDS011;15006;48.584;9.186;2022-07-05T06:09:05;1.83;;;1.73;;
27566;SDS011;15006;48.584;9.186;2022-07-05T06:11:31;5.20;;;1.98;;
27566;SDS011;15006;48.584;9.186;2022-07-05T06:13:57;1.90;;;1.80;;
27566;SDS011;15006;48.584;9.186;2022-07-05T06:16:23;4.15;;;1.45;;
27566;SDS011;15006;48.584;9.186;2022-07-05T06:18:49;1.85;;;1.75;;
27566;SDS011;15006;48.584;9.186;2022-07-05T06:21:15;3.50;;;1.70;;
27566;SDS011;15006;48.584;9.186;2022-07-05T06:23:40;1.90;;;1.80;;
27566;SDS011;15006;48.584;9.186;2022-07-05T06:26:06;2.45;;;1.30;;
27566;SDS011;15006;48.584;9.186;2022-07-05T06:28:33;4.97;;;1.60;;
27566;SDS011;15006;48.584;9.186;2022-07-05T06:30:59;1.70;;;1.60;;
27566;SDS011;15006;48.584;9.186;2022-07-05T06:33:25;2.88;;;1.38;;
27566;SDS011;15006;48.584;9.186;2022-07-05T06:35:53;1.63;;;1.52;;
27566;SDS011;15006;48.584;9.186;2022-07-05T06:38:19;1.60;;;1.30;;
27566;SDS011;15006;48.584;9.186;2022-07-05T06:40:45;1.65;;;1.48;;
27566;SDS011;15006;48.584;9.186;2022-07-05T06:43:11;3.80;;;1.38;;
27566;SDS011;15006;48.584;9.186;2022-07-05T06:45:39;1.73;;;1.20;;
27566;SDS011;15006;48.584;9.186;2022-07-05T06:48:09;1.83;;;1.10;;
27566;SDS011;15006;48.584;9.186;2022-07-05T06:53:04;4.00;;;1.50;;
27566;SDS011;15006;48.584;9.186;2022-07-05T06:55:31;1.20;;;1.10;;
27566;SDS011;15006;48.584;9.186;2022-07-05T06:57:58;1.52;;;1.40;;
27566;SDS011;15006;48.584;9.186;2022-07-05T07:00:32;1.27;;;1.10;;
27566;SDS011;15006;48.584;9.186;2022-07-05T07:02:59;1.08;;;1.08;;
27566;SDS011;15006;48.584;9.186;2022-07-05T07:05:34;1.00;;;1.00;;
27566;SDS011;15006;48.584;9.186;2022-07-05T07:08:00;1.75;;;1.17;;
27566;SDS011;15006;48.584;9.186;2022-07-05T07:10:45;2.08;;;1.10;;
27566;SDS011;15006;48.584;9.186;2022-07-05T07:13:11;1.30;;;1.00;;
27566;SDS011;15006;48.584;9.186;2022-07-05T07:15:37;1.48;;;0.90;;
27566;SDS011;15006;48.584;9.186;2022-07-05T07:18:03;1.00;;;1.00;;
27566;SDS011;15006;48.584;9.186;2022-07-05T07:20:30;0.93;;;0.90;;
27566;SDS011;15006;48.584;9.186;2022-07-05T07:22:55;1.00;;;1.00;;
27566;SDS011;15006;48.584;9.186;2022-07-05T07:25:27;2.85;;;0.90;;
27566;SDS011;15006;48.584;9.186;2022-07-05T07:27:54;0.90;;;0.85;;
27566;SDS011;15006;48.584;9.186;2022-07-05T07:30:22;2.95;;;0.80;;
27566;SDS011;15006;48.584;9.186;2022-07-05T07:32:50;0.85;;;0.80;;
27566;SDS011;15006;48.584;9.186;2022-07-05T07:35:16;1.38;;;0.93;;
27566;SDS011;15006;48.584;9.186;2022-07-05T07:37:42;0.90;;;0.90;;
27566;SDS011;15006;48.584;9.186;2022-07-05T07:40:08;1.20;;;1.10;;
27566;SDS011;15006;48.584;9.186;2022-07-05T07:42:35;0.77;;;0.77;;
27566;SDS011;15006;48.584;9.186;2022-07-05T07:45:02;5.30;;;1.10;;
27566;SDS011;15006;48.584;9.186;2022-07-05T07:47:29;0.63;;;0.63;;
27566;SDS011;15006;48.584;9.186;2022-07-05T07:50:09;1.10;;;0.73;;
27566;SDS011;15006;48.584;9.186;2022-07-05T07:52:35;1.08;;;0.90;;
27566;SDS011;15006;48.584;9.186;2022-07-05T07:55:02;2.55;;;0.90;;
27566;SDS011;15006;48.584;9.186;2022-07-05T07:57:28;1.33;;;1.00;;
27566;SDS011;15006;48.584;9.186;2022-07-05T07:59:57;0.73;;;0.73;;
27566;SDS011;15006;48.584;9.186;2022-07-05T08:02:23;2.10;;;0.93;;
27566;SDS011;15006;48.584;9.186;2022-07-05T08:04:49;1.45;;;1.00;;
27566;SDS011;15006;48.584;9.186;2022-07-05T08:07:16;7.72;;;1.05;;
27566;SDS011;15006;48.584;9.186;2022-07-05T08:09:43;1.48;;;0.60;;
27566;SDS011;15006;48.584;9.186;2022-07-05T08:12:09;3.42;;;0.70;;
27566;SDS011;15006;48.584;9.186;2022-07-05T08:14:36;0.70;;;0.70;;
27566;SDS011;15006;48.584;9.186;2022-07-05T08:17:02;5.20;;;0.60;;
27566;SDS011;15006;48.584;9.186;2022-07-05T08:19:28;1.50;;;0.77;;
27566;SDS011;15006;48.584;9.186;2022-07-05T08:22:12;0.75;;;0.63;;
27566;SDS011;15006;48.584;9.186;2022-07-05T08:24:39;0.50;;;0.50;;
27566;SDS011;15006;48.584;9.186;2022-07-05T08:27:05;0.73;;;0.60;;
27566;SDS011;15006;48.584;9.186;2022-07-05T08:29:31;0.60;;;0.60;;
27566;SDS011;15006;48.584;9.186;2022-07-05T08:31:57;0.77;;;0.65;;
27566;SDS011;15006;48.584;9.186;2022-07-05T08:34:23;0.70;;;0.70;;
27566;SDS011;15006;48.584;9.186;2022-07-05T08:36:49;0.40;;;0.40;;
27566;SDS011;15006;48.584;9.186;2022-07-05T08:39:15;1.08;;;0.40;;
27566;SDS011;15006;48.584;9.186;2022-07-05T08:41:42;0.68;;;0.45;;
27566;SDS011;15006;48.584;9.186;2022-07-05T08:44:15;0.63;;;0.38;;
27566;SDS011;15006;48.584;9.186;2022-07-05T08:46:45;0.40;;;0.30;;
27566;SDS011;15006;48.584;9.186;2022-07-05T08:49:16;1.05;;;0.40;;
27566;SDS011;15006;48.584;9.186;2022-07-05T08:51:48;2.47;;;0.60;;
27566;SDS011;15006;48.584;9.186;2022-07-05T08:54:15;2.63;;;0.63;;
27566;SDS011;15006;48.584;9.186;2022-07-05T08:56:42;0.47;;;0.47;;
27566;SDS011;15006;48.584;9.186;2022-07-05T08:59:09;1.73;;;0.50;;
27566;SDS011;15006;48.584;9.186;2022-07-05T09:01:35;0.52;;;0.52;;
27566;SDS011;15006;48.584;9.186;2022-07-05T09:04:05;0.70;;;0.57;;
27566;SDS011;15006;48.584;9.186;2022-07-05T09:06:38;0.85;;;0.60;;
27566;SDS011;15006;48.584;9.186;2022-07-05T09:09:05;1.60;;;0.45;;
27566;SDS011;15006;48.584;9.186;2022-07-05T09:14:05;1.73;;;0.60;;
27566;SDS011;15006;48.584;9.186;2022-07-05T09:16:49;1.98;;;0.50;;
27566;SDS011;15006;48.584;9.186;2022-07-05T09:19:16;7.78;;;0.50;;
27566;SDS011;15006;48.584;9.186;2022-07-05T09:21:42;2.35;;;0.40;;
27566;SDS011;15006;48.584;9.186;2022-07-05T09:24:09;0.45;;;0.38;;
27566;SDS011;15006;48.584;9.186;2022-07-05T09:26:37;2.65;;;1.10;;
27566;SDS011;15006;48.584;9.186;2022-07-05T09:29:08;0.63;;;0.57;;
27566;SDS011;15006;48.584;9.186;2022-07-05T09:31:40;1.40;;;0.80;;
27566;SDS011;15006;48.584;9.186;2022-07-05T09:34:12;0.75;;;0.50;;
27566;SDS011;15006;48.584;9.186;2022-07-05T09:36:46;1.30;;;0.50;;
27566;SDS011;15006;48.584;9.186;2022-07-05T09:44:46;0.60;;;0.60;;
27566;SDS011;15006;48.584;9.186;2022-07-05T09:47:24;1.05;;;0.60;;
27566;SDS011;15006;48.584;9.186;2022-07-05T09:49:53;1.23;;;0.60;;
27566;SDS011;15006;48.584;9.186;2022-07-05T09:52:26;2.40;;;0.50;;
27566;SDS011;15006;48.584;9.186;2022-07-05T09:57:39;0.38;;;0.30;;
27566;SDS011;15006;48.584;9.186;2022-07-05T10:00:10;0.30;;;0.30;;
27566;SDS011;15006;48.584;9.186;2022-07-05T10:02:42;1.13;;;0.60;;
27566;SDS011;15006;48.584;9.186;2022-07-05T10:07:47;1.60;;;0.60;;
27566;SDS011;15006;48.584;9.186;2022-07-05T10:10:16;0.35;;;0.32;;
27566;SDS011;15006;48.584;9.186;2022-07-05T10:12:48;0.20;;;0.20;;
27566;SDS011;15006;48.584;9.186;2022-07-05T10:15:17;0.50;;;0.43;;
27566;SDS011;15006;48.584;9.186;2022-07-05T10:17:56;1.05;;;0.40;;
27566;SDS011;15006;48.584;9.186;2022-07-05T10:20:42;1.25;;;0.40;;
27566;SDS011;15006;48.584;9.186;2022-07-05T10:23:11;1.20;;;0.40;;
27566;SDS011;15006;48.584;9.186;2022-07-05T10:25:40;2.03;;;0.35;;
27566;SDS011;15006;48.584;9.186;2022-07-05T10:28:09;0.88;;;0.50;;
27566;SDS011;15006;48.584;9.186;2022-07-05T10:30:36;0.73;;;0.50;;
27566;SDS011;15006;48.584;9.186;2022-07-05T10:33:03;0.47;;;0.47;;
27566;SDS011;15006;48.584;9.186;2022-07-05T10:35:32;0.82;;;0.40;;
27566;SDS011;15006;48.584;9.186;2022-07-05T10:37:59;0.68;;;0.68;;
27566;SDS011;15006;48.584;9.186;2022-07-05T10:40:26;0.55;;;0.50;;
27566;SDS011;15006;48.584;9.186;2022-07-05T10:42:55;0.60;;;0.47;;
27566;SDS011;15006;48.584;9.186;2022-07-05T10:45:31;0.90;;;0.40;;
27566;SDS011;15006;48.584;9.186;2022-07-05T10:50:50;1.50;;;0.60;;
27566;SDS011;15006;48.584;9.186;2022-07-05T10:58:34;0.40;;;0.32;;
27566;SDS011;15006;48.584;9.186;2022-07-05T11:11:26;1.75;;;0.38;;
27566;SDS011;15006;48.584;9.186;2022-07-05T11:13:57;0.30;;;0.28;;
27566;SDS011;15006;48.584;9.186;2022-07-05T11:16:26;1.38;;;0.30;;
27566;SDS011;15006;48.584;9.186;2022-07-05T11:26:50;0.85;;;0.40;;
27566;SDS011;15006;48.584;9.186;2022-07-05T11:30:01;1.20;;;0.40;;
27566;SDS011;15006;48.584;9.186;2022-07-05T11:32:21;0.60;;;0.22;;
27566;SDS011;15006;48.584;9.186;2022-07-05T11:34:54;1.60;;;0.40;;
27566;SDS011;15006;48.584;9.186;2022-07-05T11:37:24;4.57;;;0.52;;
27566;SDS011;15006;48.584;9.186;2022-07-05T11:42:51;2.60;;;0.40;;
27566;SDS011;15006;48.584;9.186;2022-07-05T11:45:17;1.58;;;0.22;;
27566;SDS011;15006;48.584;9.186;2022-07-05T11:47:43;0.70;;;0.35;;
27566;SDS011;15006;48.584;9.186;2022-07-05T11:50:10;0.30;;;0.20;;
27566;SDS011;15006;48.584;9.186;2022-07-05T11:52:37;0.85;;;0.38;;
27566;SDS011;15006;48.584;9.186;2022-07-05T11:55:05;4.55;;;0.40;;
27566;SDS011;15006;48.584;9.186;2022-07-05T11:57:33;0.47;;;0.30;;
27566;SDS011;15006;48.584;9.186;2022-07-05T11:59:59;1.08;;;0.40;;
27566;SDS011;15006;48.584;9.186;2022-07-05T12:02:26;1.95;;;0.32;;
27566;SDS011;15006;48.584;9.186;2022-07-05T12:04:53;1.42;;;0.30;;
27566;SDS011;15006;48.584;9.186;2022-07-05T12:07:27;0.47;;;0.40;;
27566;SDS011;15006;48.584;9.186;2022-07-05T12:09:59;1.50;;;0.30;;
27566;SDS011;15006;48.584;9.186;2022-07-05T12:12:45;0.98;;;0.40;;
27566;SDS011;15006;48.584;9.186;2022-07-05T12:15:19;1.15;;;0.32;;
27566;SDS011;15006;48.584;9.186;2022-07-05T12:17:47;0.63;;;0.28;;
27566;SDS011;15006;48.584;9.186;2022-07-05T12:20:35;1.15;;;0.40;;
27566;SDS011;15006;48.584;9.186;2022-07-05T12:23:03;1.13;;;0.28;;
27566;SDS011;15006;48.584;9.186;2022-07-05T12:25:30;0.20;;;0.20;;
27566;SDS011;15006;48.584;9.186;2022-07-05T12:27:58;1.55;;;0.40;;
27566;SDS011;15006;48.584;9.186;2022-07-05T12:30:28;0.90;;;0.30;;
27566;SDS011;15006;48.584;9.186;2022-07-05T12:33:05;0.38;;;0.20;;
27566;SDS011;15006;48.584;9.186;2022-07-05T12:35:46;0.30;;;0.30;;
27566;SDS011;15006;48.584;9.186;2022-07-05T12:40:48;0.17;;;0.15;;
27566;SDS011;15006;48.584;9.186;2022-07-05T12:43:23;0.47;;;0.20;;
27566;SDS011;15006;48.584;9.186;2022-07-05T12:48:44;0.38;;;0.20;;
27566;SDS011;15006;48.584;9.186;2022-07-05T12:51:30;0.75;;;0.30;;
27566;SDS011;15006;48.584;9.186;2022-07-05T12:54:02;0.35;;;0.30;;
27566;SDS011;15006;48.584;9.186;2022-07-05T12:56:52;1.33;;;0.30;;
27566;SDS011;15006;48.584;9.186;2022-07-05T12:59:38;1.58;;;0.30;;
27566;SDS011;15006;48.584;9.186;2022-07-05T13:02:07;0.55;;;0.35;;
27566;SDS011;15006;48.584;9.186;2022-07-05T13:04:35;0.85;;;0.40;;
27566;SDS011;15006;48.584;9.186;2022-07-05T13:07:01;0.30;;;0.30;;
27566;SDS011;15006;48.584;9.186;2022-07-05T13:14:46;2.63;;;0.40;;
27566;SDS011;15006;48.584;9.186;2022-07-05T13:17:15;4.63;;;0.50;;
27566;SDS011;15006;48.584;9.186;2022-07-05T13:19:47;0.85;;;0.30;;
27566;SDS011;15006;48.584;9.186;2022-07-05T13:22:16;0.57;;;0.50;;
27566;SDS011;15006;48.584;9.186;2022-07-05T13:24:43;0.57;;;0.30;;
27566;SDS011;15006;48.584;9.186;2022-07-05T13:27:10;1.05;;;0.50;;
27566;SDS011;15006;48.584;9.186;2022-07-05T13:29:40;0.40;;;0.20;;
27566;SDS011;15006;48.584;9.186;2022-07-05T13:32:06;0.30;;;0.30;;
27566;SDS011;15006;48.584;9.186;2022-07-05T13:34:32;1.20;;;0.20;;
27566;SDS011;15006;48.584;9.186;2022-07-05T13:36:59;0.50;;;0.35;;
27566;SDS011;15006;48.584;9.186;2022-07-05T13:39:26;0.85;;;0.40;;
27566;SDS011;15006;48.584;9.186;2022-07-05T13:41:53;0.47;;;0.40;;
27566;SDS011;15006;48.584;9.186;2022-07-05T13:44:21;0.40;;;0.40;;
27566;SDS011;15006;48.584;9.186;2022-07-05T13:46:47;0.28;;;0.28;;
27566;SDS011;15006;48.584;9.186;2022-07-05T13:49:13;2.10;;;0.45;;
27566;SDS011;15006;48.584;9.186;2022-07-05T13:51:39;0.38;;;0.30;;
27566;SDS011;15006;48.584;9.186;2022-07-05T13:54:06;1.13;;;0.30;;
27566;SDS011;15006;48.584;9.186;2022-07-05T13:56:32;0.30;;;0.30;;
27566;SDS011;15006;48.584;9.186;2022-07-05T13:59:00;2.10;;;0.50;;
27566;SDS011;15006;48.584;9.186;2022-07-05T14:01:27;0.30;;;0.25;;
27566;SDS011;15006;48.584;9.186;2022-07-05T14:03:54;0.52;;;0.32;;
27566;SDS011;15006;48.584;9.186;2022-07-05T14:06:27;0.95;;;0.22;;
27566;SDS011;15006;48.584;9.186;2022-07-05T14:08:55;0.30;;;0.30;;
27566;SDS011;15006;48.584;9.186;2022-07-05T14:11:21;0.45;;;0.30;;
27566;SDS011;15006;48.584;9.186;2022-07-05T14:13:50;0.40;;;0.40;;
27566;SDS011;15006;48.584;9.186;2022-07-05T14:16:16;7.32;;;0.60;;
27566;SDS011;15006;48.584;9.186;2022-07-05T14:18:42;2.97;;;0.50;;
27566;SDS011;15006;48.584;9.186;2022-07-05T14:21:07;0.40;;;0.38;;
27566;SDS011;15006;48.584;9.186;2022-07-05T14:23:40;1.70;;;0.70;;
27566;SDS011;15006;48.584;9.186;2022-07-05T14:26:07;0.52;;;0.30;;
27566;SDS011;15006;48.584;9.186;2022-07-05T14:28:34;4.82;;;0.43;;
27566;SDS011;15006;48.584;9.186;2022-07-05T14:31:00;0.80;;;0.40;;
27566;SDS011;15006;48.584;9.186;2022-07-05T14:33:26;1.25;;;0.40;;
27566;SDS011;15006;48.584;9.186;2022-07-05T14:35:52;1.70;;;0.40;;
27566;SDS011;15006;48.584;9.186;2022-07-05T14:38:18;0.45;;;0.40;;
27566;SDS011;15006;48.584;9.186;2022-07-05T14:40:44;0.93;;;0.40;;
27566;SDS011;15006;48.584;9.186;2022-07-05T14:43:10;1.45;;;0.40;;
27566;SDS011;15006;48.584;9.186;2022-07-05T14:45:36;2.63;;;0.50;;
27566;SDS011;15006;48.584;9.186;2022-07-05T14:48:02;0.30;;;0.30;;
27566;SDS011;15006;48.584;9.186;2022-07-05T14:50:34;0.60;;;0.40;;
27566;SDS011;15006;48.584;9.186;2022-07-05T14:53:00;2.45;;;0.60;;
27566;SDS011;15006;48.584;9.186;2022-07-05T14:55:35;0.22;;;0.22;;
27566;SDS011;15006;48.584;9.186;2022-07-05T14:58:03;0.40;;;0.35;;
27566;SDS011;15006;48.584;9.186;2022-07-05T15:00:35;2.45;;;0.32;;
27566;SDS011;15006;48.584;9.186;2022-07-05T15:03:01;0.85;;;0.45;;
27566;SDS011;15006;48.584;9.186;2022-07-05T15:05:46;0.60;;;0.40;;
27566;SDS011;15006;48.584;9.186;2022-07-05T15:08:13;0.60;;;0.40;;
27566;SDS011;15006;48.584;9.186;2022-07-05T15:10:39;0.80;;;0.50;;
27566;SDS011;15006;48.584;9.186;2022-07-05T15:13:05;0.88;;;0.30;;
27566;SDS011;15006;48.584;9.186;2022-07-05T15:15:33;0.47;;;0.40;;
27566;SDS011;15006;48.584;9.186;2022-07-05T15:17:59;1.10;;;0.50;;
27566;SDS011;15006;48.584;9.186;2022-07-05T15:20:25;1.45;;;0.30;;
27566;SDS011;15006;48.584;9.186;2022-07-05T15:22:51;1.42;;;0.77;;
27566;SDS011;15006;48.584;9.186;2022-07-05T15:25:17;1.38;;;0.40;;
27566;SDS011;15006;48.584;9.186;2022-07-05T15:27:43;1.38;;;0.50;;
27566;SDS011;15006;48.584;9.186;2022-07-05T15:30:10;0.80;;;0.40;;
27566;SDS011;15006;48.584;9.186;2022-07-05T15:32:37;1.75;;;0.40;;
27566;SDS011;15006;48.584;9.186;2022-07-05T15:35:03;3.70;;;0.45;;
27566;SDS011;15006;48.584;9.186;2022-07-05T15:37:30;2.92;;;0.45;;
27566;SDS011;15006;48.584;9.186;2022-07-05T15:39:56;0.50;;;0.40;;
27566;SDS011;15006;48.584;9.186;2022-07-05T15:42:24;1.23;;;0.60;;
27566;SDS011;15006;48.584;9.186;2022-07-05T15:44:50;0.57;;;0.40;;
27566;SDS011;15006;48.584;9.186;2022-07-05T15:47:16;0.60;;;0.30;;
27566;SDS011;15006;48.584;9.186;2022-07-05T15:49:42;0.82;;;0.30;;